sensor_id;sensor_type;location;lat;lon;timestamp;P1;durP1;ratioP1;P2;durP2;ratioP2
15449;SDS011;7826;49.784;9.934;2023-04-29T00:02:17;13.73;;;9.87;;
15449;SDS011;7826;49.784;9.934;2023-04-29T00:04:43;10.90;;;9.07;;
15449;SDS011;7826;49.784;9.934;2023-04-29T00:07:10;11.73;;;9.63;;
15449;SDS011;7826;49.784;9.934;2023-04-29T00:09:40;10.63;;;9.30;;
15449;SDS011;7826;49.784;9.934;2023-04-29T00:12:07;11.10;;;9.50;;
15449;SDS011;7826;49.784;9.934;2023-04-29T00:14:35;11.70;;;10.00;;
15449;SDS011;7826;49.784;9.934;2023-04-29T00:17:02;11.53;;;9.60;;
15449;SDS011;7826;49.784;9.934;2023-04-29T00:19:28;10.60;;;9.50;;
15449;SDS011;7826;49.784;9.934;2023-04-29T00:21:54;10.50;;;9.47;;
15449;SDS011;7826;49.784;9.934;2023-04-29T00:24:21;13.30;;;11.00;;
15449;SDS011;7826;49.784;9.934;2023-04-29T00:26:47;14.90;;;11.70;;
15449;SDS011;7826;49.784;9.934;2023-04-29T00:29:13;11.43;;;10.00;;
15449;SDS011;7826;49.784;9.934;2023-04-29T00:31:40;12.53;;;10.87;;
15449;SDS011;7826;49.784;9.934;2023-04-29T00:34:07;12.60;;;11.03;;
15449;SDS011;7826;49.784;9.934;2023-04-29T00:36:33;12.53;;;10.87;;
15449;SDS011;7826;49.784;9.934;2023-04-29T00:39:00;17.10;;;12.23;;
15449;SDS011;7826;49.784;9.934;2023-04-29T00:41:26;14.50;;;12.40;;
15449;SDS011;7826;49.784;9.934;2023-04-29T00:43:52;13.80;;;11.10;;
15449;SDS011;7826;49.784;9.934;2023-04-29T00:46:19;15.00;;;12.53;;
15449;SDS011;7826;49.784;9.934;2023-04-29T00:48:45;17.03;;;11.60;;
15449;SDS011;7826;49.784;9.934;2023-04-29T00:51:11;16.33;;;12.67;;
15449;SDS011;7826;49.784;9.934;2023-04-29T00:53:39;14.77;;;12.23;;
15449;SDS011;7826;49.784;9.934;2023-04-29T00:56:06;14.33;;;12.30;;
15449;SDS011;7826;49.784;9.934;2023-04-29T00:58:33;14.23;;;12.37;;
15449;SDS011;7826;49.784;9.934;2023-04-29T01:01:01;14.37;;;12.30;;
15449;SDS011;7826;49.784;9.934;2023-04-29T01:03:31;15.97;;;12.20;;
15449;SDS011;7826;49.784;9.934;2023-04-29T01:11:22;16.07;;;13.47;;
15449;SDS011;7826;49.784;9.934;2023-04-29T01:13:57;14.77;;;13.07;;
15449;SDS011;7826;49.784;9.934;2023-04-29T01:18:58;18.83;;;14.73;;
15449;SDS011;7826;49.784;9.934;2023-04-29T01:21:27;15.83;;;14.17;;
15449;SDS011;7826;49.784;9.934;2023-04-29T01:23:56;18.23;;;14.37;;
15449;SDS011;7826;49.784;9.934;2023-04-29T01:26:23;18.60;;;13.90;;
15449;SDS011;7826;49.784;9.934;2023-04-29T01:28:54;17.83;;;14.50;;
15449;SDS011;7826;49.784;9.934;2023-04-29T01:32:05;18.87;;;14.83;;
15449;SDS011;7826;49.784;9.934;2023-04-29T01:37:13;17.67;;;14.67;;
15449;SDS011;7826;49.784;9.934;2023-04-29T01:39:55;19.00;;;14.80;;
15449;SDS011;7826;49.784;9.934;2023-04-29T01:42:35;19.90;;;14.87;;
15449;SDS011;7826;49.784;9.934;2023-04-29T01:45:10;17.60;;;14.77;;
15449;SDS011;7826;49.784;9.934;2023-04-29T01:47:43;19.03;;;15.70;;
15449;SDS011;7826;49.784;9.934;2023-04-29T01:50:12;18.40;;;15.00;;
15449;SDS011;7826;49.784;9.934;2023-04-29T01:52:38;19.17;;;15.53;;
15449;SDS011;7826;49.784;9.934;2023-04-29T01:55:04;18.50;;;14.93;;
15449;SDS011;7826;49.784;9.934;2023-04-29T01:57:31;20.07;;;15.97;;
15449;SDS011;7826;49.784;9.934;2023-04-29T01:59:57;18.87;;;15.83;;
15449;SDS011;7826;49.784;9.934;2023-04-29T02:02:24;19.57;;;15.77;;
15449;SDS011;7826;49.784;9.934;2023-04-29T02:04:50;20.50;;;16.50;;
15449;SDS011;7826;49.784;9.934;2023-04-29T02:07:16;19.37;;;15.47;;
15449;SDS011;7826;49.784;9.934;2023-04-29T02:09:42;20.60;;;16.43;;
15449;SDS011;7826;49.784;9.934;2023-04-29T02:12:08;20.00;;;16.30;;
15449;SDS011;7826;49.784;9.934;2023-04-29T02:14:34;18.30;;;15.63;;
15449;SDS011;7826;49.784;9.934;2023-04-29T02:17:01;21.47;;;16.73;;
15449;SDS011;7826;49.784;9.934;2023-04-29T02:19:27;22.00;;;18.10;;
15449;SDS011;7826;49.784;9.934;2023-04-29T02:21:53;23.10;;;17.73;;
15449;SDS011;7826;49.784;9.934;2023-04-29T02:24:19;20.67;;;17.27;;
15449;SDS011;7826;49.784;9.934;2023-04-29T02:26:45;22.53;;;18.60;;
15449;SDS011;7826;49.784;9.934;2023-04-29T02:29:12;22.77;;;17.30;;
15449;SDS011;7826;49.784;9.934;2023-04-29T02:31:38;22.97;;;18.27;;
15449;SDS011;7826;49.784;9.934;2023-04-29T02:34:04;24.73;;;19.17;;
15449;SDS011;7826;49.784;9.934;2023-04-29T02:36:30;23.77;;;19.07;;
15449;SDS011;7826;49.784;9.934;2023-04-29T02:38:56;23.70;;;18.57;;
15449;SDS011;7826;49.784;9.934;2023-04-29T02:41:24;27.43;;;20.13;;
15449;SDS011;7826;49.784;9.934;2023-04-29T02:43:51;22.80;;;18.10;;
15449;SDS011;7826;49.784;9.934;2023-04-29T02:46:17;26.33;;;20.23;;
15449;SDS011;7826;49.784;9.934;2023-04-29T02:48:44;24.37;;;19.87;;
15449;SDS011;7826;49.784;9.934;2023-04-29T02:51:10;26.67;;;19.90;;
15449;SDS011;7826;49.784;9.934;2023-04-29T02:53:37;26.83;;;21.37;;
15449;SDS011;7826;49.784;9.934;2023-04-29T02:56:03;26.07;;;20.33;;
15449;SDS011;7826;49.784;9.934;2023-04-29T02:58:30;27.63;;;20.73;;
15449;SDS011;7826;49.784;9.934;2023-04-29T03:00:56;25.77;;;20.40;;
15449;SDS011;7826;49.784;9.934;2023-04-29T03:03:23;31.00;;;22.27;;
15449;SDS011;7826;49.784;9.934;2023-04-29T03:05:49;26.23;;;19.67;;
15449;SDS011;7826;49.784;9.934;2023-04-29T03:08:15;27.70;;;22.43;;
15449;SDS011;7826;49.784;9.934;2023-04-29T03:10:41;29.27;;;21.57;;
15449;SDS011;7826;49.784;9.934;2023-04-29T03:13:08;31.60;;;23.33;;
15449;SDS011;7826;49.784;9.934;2023-04-29T03:15:34;29.47;;;22.20;;
15449;SDS011;7826;49.784;9.934;2023-04-29T03:18:01;29.73;;;22.53;;
15449;SDS011;7826;49.784;9.934;2023-04-29T03:20:29;32.53;;;23.23;;
15449;SDS011;7826;49.784;9.934;2023-04-29T03:22:57;29.53;;;22.30;;
15449;SDS011;7826;49.784;9.934;2023-04-29T03:25:25;30.67;;;22.40;;
15449;SDS011;7826;49.784;9.934;2023-04-29T03:27:51;29.67;;;22.67;;
15449;SDS011;7826;49.784;9.934;2023-04-29T03:30:18;29.37;;;22.07;;
15449;SDS011;7826;49.784;9.934;2023-04-29T03:32:44;29.17;;;22.57;;
15449;SDS011;7826;49.784;9.934;2023-04-29T03:35:10;28.73;;;21.47;;
15449;SDS011;7826;49.784;9.934;2023-04-29T03:37:37;28.70;;;20.77;;
15449;SDS011;7826;49.784;9.934;2023-04-29T03:40:04;33.07;;;22.10;;
15449;SDS011;7826;49.784;9.934;2023-04-29T03:42:31;27.63;;;21.20;;
15449;SDS011;7826;49.784;9.934;2023-04-29T03:44:57;30.60;;;21.60;;
15449;SDS011;7826;49.784;9.934;2023-04-29T03:47:23;32.20;;;22.03;;
15449;SDS011;7826;49.784;9.934;2023-04-29T03:49:50;27.90;;;21.03;;
15449;SDS011;7826;49.784;9.934;2023-04-29T03:52:16;27.87;;;21.00;;
15449;SDS011;7826;49.784;9.934;2023-04-29T03:54:43;29.07;;;21.27;;
15449;SDS011;7826;49.784;9.934;2023-04-29T03:57:09;27.70;;;20.70;;
15449;SDS011;7826;49.784;9.934;2023-04-29T03:59:35;32.93;;;22.37;;
15449;SDS011;7826;49.784;9.934;2023-04-29T04:02:02;27.40;;;20.67;;
15449;SDS011;7826;49.784;9.934;2023-04-29T04:04:28;28.73;;;21.50;;
15449;SDS011;7826;49.784;9.934;2023-04-29T04:06:54;30.87;;;22.00;;
15449;SDS011;7826;49.784;9.934;2023-04-29T04:09:20;27.70;;;20.70;;
15449;SDS011;7826;49.784;9.934;2023-04-29T04:11:47;27.57;;;20.10;;
15449;SDS011;7826;49.784;9.934;2023-04-29T04:14:13;27.97;;;21.40;;
15449;SDS011;7826;49.784;9.934;2023-04-29T04:16:40;29.63;;;21.13;;
15449;SDS011;7826;49.784;9.934;2023-04-29T04:19:06;28.53;;;20.23;;
15449;SDS011;7826;49.784;9.934;2023-04-29T04:21:32;28.50;;;21.17;;
15449;SDS011;7826;49.784;9.934;2023-04-29T04:23:59;27.37;;;20.77;;
15449;SDS011;7826;49.784;9.934;2023-04-29T04:26:26;28.70;;;21.10;;
15449;SDS011;7826;49.784;9.934;2023-04-29T04:28:52;25.40;;;19.87;;
15449;SDS011;7826;49.784;9.934;2023-04-29T04:31:18;27.93;;;21.70;;
15449;SDS011;7826;49.784;9.934;2023-04-29T04:33:45;30.00;;;21.10;;
15449;SDS011;7826;49.784;9.934;2023-04-29T04:36:11;31.17;;;22.90;;
15449;SDS011;7826;49.784;9.934;2023-04-29T04:38:37;26.87;;;20.37;;
15449;SDS011;7826;49.784;9.934;2023-04-29T04:41:07;32.73;;;21.73;;
15449;SDS011;7826;49.784;9.934;2023-04-29T04:43:33;26.50;;;21.03;;
15449;SDS011;7826;49.784;9.934;2023-04-29T04:46:00;28.70;;;21.00;;
15449;SDS011;7826;49.784;9.934;2023-04-29T04:48:38;31.40;;;22.33;;
15449;SDS011;7826;49.784;9.934;2023-04-29T04:51:08;29.50;;;20.70;;
15449;SDS011;7826;49.784;9.934;2023-04-29T04:53:35;30.03;;;21.63;;
15449;SDS011;7826;49.784;9.934;2023-04-29T04:56:02;29.50;;;21.10;;
15449;SDS011;7826;49.784;9.934;2023-04-29T04:58:29;28.17;;;21.03;;
15449;SDS011;7826;49.784;9.934;2023-04-29T05:00:56;31.73;;;21.67;;
15449;SDS011;7826;49.784;9.934;2023-04-29T05:03:23;30.60;;;21.60;;
15449;SDS011;7826;49.784;9.934;2023-04-29T05:05:53;29.00;;;21.70;;
15449;SDS011;7826;49.784;9.934;2023-04-29T05:08:19;33.00;;;22.37;;
15449;SDS011;7826;49.784;9.934;2023-04-29T05:10:46;32.53;;;21.70;;
15449;SDS011;7826;49.784;9.934;2023-04-29T05:13:12;32.77;;;20.90;;
15449;SDS011;7826;49.784;9.934;2023-04-29T05:15:38;32.87;;;21.03;;
15449;SDS011;7826;49.784;9.934;2023-04-29T05:18:04;31.43;;;21.60;;
15449;SDS011;7826;49.784;9.934;2023-04-29T05:20:31;34.70;;;23.20;;
15449;SDS011;7826;49.784;9.934;2023-04-29T05:22:57;33.13;;;23.10;;
15449;SDS011;7826;49.784;9.934;2023-04-29T05:25:23;31.93;;;21.87;;
15449;SDS011;7826;49.784;9.934;2023-04-29T05:27:50;31.07;;;20.87;;
15449;SDS011;7826;49.784;9.934;2023-04-29T05:30:16;29.80;;;21.30;;
15449;SDS011;7826;49.784;9.934;2023-04-29T05:32:43;33.17;;;20.73;;
15449;SDS011;7826;49.784;9.934;2023-04-29T05:35:13;28.97;;;20.70;;
15449;SDS011;7826;49.784;9.934;2023-04-29T05:37:40;29.67;;;20.27;;
15449;SDS011;7826;49.784;9.934;2023-04-29T05:40:06;32.20;;;20.33;;
15449;SDS011;7826;49.784;9.934;2023-04-29T05:42:34;34.20;;;20.47;;
15449;SDS011;7826;49.784;9.934;2023-04-29T05:45:00;32.07;;;20.93;;
15449;SDS011;7826;49.784;9.934;2023-04-29T05:47:26;33.30;;;20.20;;
15449;SDS011;7826;49.784;9.934;2023-04-29T05:49:53;31.23;;;19.47;;
15449;SDS011;7826;49.784;9.934;2023-04-29T05:52:19;31.90;;;20.50;;
15449;SDS011;7826;49.784;9.934;2023-04-29T05:54:45;29.67;;;19.30;;
15449;SDS011;7826;49.784;9.934;2023-04-29T05:57:12;30.23;;;19.00;;
15449;SDS011;7826;49.784;9.934;2023-04-29T05:59:38;28.70;;;17.67;;
15449;SDS011;7826;49.784;9.934;2023-04-29T06:02:04;29.67;;;19.47;;
15449;SDS011;7826;49.784;9.934;2023-04-29T06:04:31;29.10;;;18.30;;
15449;SDS011;7826;49.784;9.934;2023-04-29T06:06:57;27.33;;;19.13;;
15449;SDS011;7826;49.784;9.934;2023-04-29T06:09:23;30.33;;;19.90;;
15449;SDS011;7826;49.784;9.934;2023-04-29T06:11:50;29.77;;;18.83;;
15449;SDS011;7826;49.784;9.934;2023-04-29T06:14:17;28.73;;;18.67;;
15449;SDS011;7826;49.784;9.934;2023-04-29T06:16:44;31.60;;;19.47;;
15449;SDS011;7826;49.784;9.934;2023-04-29T06:19:11;29.77;;;18.30;;
15449;SDS011;7826;49.784;9.934;2023-04-29T06:21:37;29.70;;;19.40;;
15449;SDS011;7826;49.784;9.934;2023-04-29T06:24:04;30.73;;;19.20;;
15449;SDS011;7826;49.784;9.934;2023-04-29T06:26:30;22.80;;;15.73;;
15449;SDS011;7826;49.784;9.934;2023-04-29T06:29:05;26.57;;;16.67;;
15449;SDS011;7826;49.784;9.934;2023-04-29T06:31:48;25.33;;;17.20;;
15449;SDS011;7826;49.784;9.934;2023-04-29T06:34:28;26.27;;;17.37;;
15449;SDS011;7826;49.784;9.934;2023-04-29T06:36:55;27.03;;;18.57;;
15449;SDS011;7826;49.784;9.934;2023-04-29T06:39:21;25.43;;;18.07;;
15449;SDS011;7826;49.784;9.934;2023-04-29T06:41:47;25.87;;;18.67;;
15449;SDS011;7826;49.784;9.934;2023-04-29T06:44:14;27.30;;;19.80;;
15449;SDS011;7826;49.784;9.934;2023-04-29T06:46:41;24.10;;;18.53;;
15449;SDS011;7826;49.784;9.934;2023-04-29T06:49:07;28.30;;;18.53;;
15449;SDS011;7826;49.784;9.934;2023-04-29T06:51:35;26.70;;;18.83;;
15449;SDS011;7826;49.784;9.934;2023-04-29T06:54:02;26.90;;;18.70;;
15449;SDS011;7826;49.784;9.934;2023-04-29T06:56:29;26.33;;;17.87;;
15449;SDS011;7826;49.784;9.934;2023-04-29T06:58:55;28.20;;;20.87;;
15449;SDS011;7826;49.784;9.934;2023-04-29T07:01:22;25.37;;;17.53;;
15449;SDS011;7826;49.784;9.934;2023-04-29T07:03:48;25.77;;;17.53;;
15449;SDS011;7826;49.784;9.934;2023-04-29T07:06:14;23.67;;;17.03;;
15449;SDS011;7826;49.784;9.934;2023-04-29T07:08:40;23.77;;;17.53;;
15449;SDS011;7826;49.784;9.934;2023-04-29T07:11:07;24.00;;;16.97;;
15449;SDS011;7826;49.784;9.934;2023-04-29T07:13:33;22.33;;;16.13;;
15449;SDS011;7826;49.784;9.934;2023-04-29T07:15:59;23.97;;;17.00;;
15449;SDS011;7826;49.784;9.934;2023-04-29T07:18:26;23.97;;;16.83;;
15449;SDS011;7826;49.784;9.934;2023-04-29T07:20:52;26.13;;;17.57;;
15449;SDS011;7826;49.784;9.934;2023-04-29T07:23:20;26.17;;;18.50;;
15449;SDS011;7826;49.784;9.934;2023-04-29T07:25:46;30.30;;;18.60;;
15449;SDS011;7826;49.784;9.934;2023-04-29T07:28:12;25.93;;;17.50;;
15449;SDS011;7826;49.784;9.934;2023-04-29T07:30:39;25.97;;;17.47;;
15449;SDS011;7826;49.784;9.934;2023-04-29T07:33:05;29.87;;;18.50;;
15449;SDS011;7826;49.784;9.934;2023-04-29T07:35:32;27.43;;;18.57;;
15449;SDS011;7826;49.784;9.934;2023-04-29T07:37:58;26.97;;;18.23;;
15449;SDS011;7826;49.784;9.934;2023-04-29T07:40:24;25.90;;;18.43;;
15449;SDS011;7826;49.784;9.934;2023-04-29T07:42:51;25.97;;;17.93;;
15449;SDS011;7826;49.784;9.934;2023-04-29T07:45:17;29.73;;;19.83;;
15449;SDS011;7826;49.784;9.934;2023-04-29T07:47:43;28.20;;;18.60;;
15449;SDS011;7826;49.784;9.934;2023-04-29T07:50:10;30.43;;;19.53;;
15449;SDS011;7826;49.784;9.934;2023-04-29T07:52:37;28.23;;;17.90;;
15449;SDS011;7826;49.784;9.934;2023-04-29T07:55:03;24.17;;;17.43;;
15449;SDS011;7826;49.784;9.934;2023-04-29T07:57:30;26.90;;;17.63;;
15449;SDS011;7826;49.784;9.934;2023-04-29T07:59:57;31.73;;;18.80;;
15449;SDS011;7826;49.784;9.934;2023-04-29T08:02:23;28.53;;;18.67;;
15449;SDS011;7826;49.784;9.934;2023-04-29T08:04:49;32.10;;;19.53;;
15449;SDS011;7826;49.784;9.934;2023-04-29T08:07:15;29.03;;;20.50;;
15449;SDS011;7826;49.784;9.934;2023-04-29T08:09:41;32.33;;;19.63;;
15449;SDS011;7826;49.784;9.934;2023-04-29T08:12:08;31.13;;;19.30;;
15449;SDS011;7826;49.784;9.934;2023-04-29T08:14:35;26.63;;;17.40;;
15449;SDS011;7826;49.784;9.934;2023-04-29T08:17:01;29.70;;;19.00;;
15449;SDS011;7826;49.784;9.934;2023-04-29T08:19:27;31.63;;;18.77;;
15449;SDS011;7826;49.784;9.934;2023-04-29T08:21:53;29.97;;;17.90;;
15449;SDS011;7826;49.784;9.934;2023-04-29T08:24:20;32.97;;;19.53;;
15449;SDS011;7826;49.784;9.934;2023-04-29T08:26:47;32.73;;;19.23;;
15449;SDS011;7826;49.784;9.934;2023-04-29T08:29:13;31.43;;;19.77;;
15449;SDS011;7826;49.784;9.934;2023-04-29T08:31:39;35.33;;;22.00;;
15449;SDS011;7826;49.784;9.934;2023-04-29T08:34:05;42.60;;;23.90;;
15449;SDS011;7826;49.784;9.934;2023-04-29T08:36:32;38.43;;;22.67;;
15449;SDS011;7826;49.784;9.934;2023-04-29T08:38:58;39.73;;;23.00;;
15449;SDS011;7826;49.784;9.934;2023-04-29T08:41:24;37.50;;;21.57;;
15449;SDS011;7826;49.784;9.934;2023-04-29T08:43:50;45.57;;;24.57;;
15449;SDS011;7826;49.784;9.934;2023-04-29T08:46:17;39.33;;;23.60;;
15449;SDS011;7826;49.784;9.934;2023-04-29T08:48:43;41.77;;;24.40;;
15449;SDS011;7826;49.784;9.934;2023-04-29T08:51:11;44.63;;;24.57;;
15449;SDS011;7826;49.784;9.934;2023-04-29T08:53:40;37.17;;;23.20;;
15449;SDS011;7826;49.784;9.934;2023-04-29T08:56:08;40.10;;;23.93;;
15449;SDS011;7826;49.784;9.934;2023-04-29T08:58:40;38.77;;;23.00;;
15449;SDS011;7826;49.784;9.934;2023-04-29T09:01:08;39.87;;;22.67;;
15449;SDS011;7826;49.784;9.934;2023-04-29T09:06:21;38.50;;;23.53;;
15449;SDS011;7826;49.784;9.934;2023-04-29T09:08:47;40.63;;;23.50;;
15449;SDS011;7826;49.784;9.934;2023-04-29T09:11:14;43.17;;;24.97;;
15449;SDS011;7826;49.784;9.934;2023-04-29T09:13:40;37.00;;;22.40;;
15449;SDS011;7826;49.784;9.934;2023-04-29T09:16:10;44.27;;;24.93;;
15449;SDS011;7826;49.784;9.934;2023-04-29T09:18:47;36.30;;;23.60;;
15449;SDS011;7826;49.784;9.934;2023-04-29T09:21:16;37.67;;;23.87;;
15449;SDS011;7826;49.784;9.934;2023-04-29T09:23:44;35.47;;;21.80;;
15449;SDS011;7826;49.784;9.934;2023-04-29T09:26:12;35.03;;;21.70;;
15449;SDS011;7826;49.784;9.934;2023-04-29T09:28:38;33.13;;;20.80;;
15449;SDS011;7826;49.784;9.934;2023-04-29T09:31:08;34.77;;;19.77;;
15449;SDS011;7826;49.784;9.934;2023-04-29T09:33:48;34.43;;;20.70;;
15449;SDS011;7826;49.784;9.934;2023-04-29T09:36:34;29.03;;;18.63;;
15449;SDS011;7826;49.784;9.934;2023-04-29T09:39:04;30.53;;;19.80;;
15449;SDS011;7826;49.784;9.934;2023-04-29T09:41:37;30.77;;;20.33;;
15449;SDS011;7826;49.784;9.934;2023-04-29T09:44:05;29.70;;;19.70;;
15449;SDS011;7826;49.784;9.934;2023-04-29T09:46:32;28.63;;;18.87;;
15449;SDS011;7826;49.784;9.934;2023-04-29T09:48:59;31.00;;;18.77;;
15449;SDS011;7826;49.784;9.934;2023-04-29T09:51:26;29.30;;;19.47;;
15449;SDS011;7826;49.784;9.934;2023-04-29T09:53:52;32.83;;;19.47;;
15449;SDS011;7826;49.784;9.934;2023-04-29T09:56:18;32.07;;;19.90;;
15449;SDS011;7826;49.784;9.934;2023-04-29T09:58:46;36.17;;;21.73;;
15449;SDS011;7826;49.784;9.934;2023-04-29T10:01:12;32.20;;;20.70;;
15449;SDS011;7826;49.784;9.934;2023-04-29T10:03:42;34.73;;;20.90;;
15449;SDS011;7826;49.784;9.934;2023-04-29T10:06:09;31.77;;;20.50;;
15449;SDS011;7826;49.784;9.934;2023-04-29T10:08:37;36.93;;;22.67;;
15449;SDS011;7826;49.784;9.934;2023-04-29T10:11:06;33.33;;;20.17;;
15449;SDS011;7826;49.784;9.934;2023-04-29T10:13:35;40.33;;;23.27;;
15449;SDS011;7826;49.784;9.934;2023-04-29T10:18:39;38.50;;;22.93;;
15449;SDS011;7826;49.784;9.934;2023-04-29T10:21:08;37.53;;;22.60;;
15449;SDS011;7826;49.784;9.934;2023-04-29T10:23:36;39.07;;;23.63;;
15449;SDS011;7826;49.784;9.934;2023-04-29T10:26:02;38.03;;;23.37;;
15449;SDS011;7826;49.784;9.934;2023-04-29T10:28:31;37.63;;;22.90;;
15449;SDS011;7826;49.784;9.934;2023-04-29T10:31:01;36.80;;;23.50;;
15449;SDS011;7826;49.784;9.934;2023-04-29T10:33:31;38.27;;;23.60;;
15449;SDS011;7826;49.784;9.934;2023-04-29T10:36:00;37.70;;;22.77;;
15449;SDS011;7826;49.784;9.934;2023-04-29T10:38:31;37.93;;;24.50;;
15449;SDS011;7826;49.784;9.934;2023-04-29T10:41:03;32.97;;;22.63;;
15449;SDS011;7826;49.784;9.934;2023-04-29T10:43:35;36.40;;;22.93;;
15449;SDS011;7826;49.784;9.934;2023-04-29T10:46:20;37.90;;;24.33;;
15449;SDS011;7826;49.784;9.934;2023-04-29T10:48:50;35.37;;;25.03;;
15449;SDS011;7826;49.784;9.934;2023-04-29T10:54:06;35.23;;;24.70;;
15449;SDS011;7826;49.784;9.934;2023-04-29T10:56:50;37.90;;;25.17;;
15449;SDS011;7826;49.784;9.934;2023-04-29T10:59:19;34.57;;;24.33;;
15449;SDS011;7826;49.784;9.934;2023-04-29T11:01:50;38.03;;;24.50;;
15449;SDS011;7826;49.784;9.934;2023-04-29T11:04:18;32.50;;;24.13;;
15449;SDS011;7826;49.784;9.934;2023-04-29T11:06:50;34.13;;;24.37;;
15449;SDS011;7826;49.784;9.934;2023-04-29T11:09:18;30.33;;;23.53;;
15449;SDS011;7826;49.784;9.934;2023-04-29T11:38:31;27.93;;;20.00;;
15449;SDS011;7826;49.784;9.934;2023-04-29T11:40:58;26.70;;;19.40;;
15449;SDS011;7826;49.784;9.934;2023-04-29T11:43:25;24.37;;;19.33;;
15449;SDS011;7826;49.784;9.934;2023-04-29T11:45:52;26.53;;;19.77;;
15449;SDS011;7826;49.784;9.934;2023-04-29T11:48:21;23.20;;;19.73;;
15449;SDS011;7826;49.784;9.934;2023-04-29T11:50:52;23.83;;;18.33;;
15449;SDS011;7826;49.784;9.934;2023-04-29T11:53:23;25.00;;;18.93;;
15449;SDS011;7826;49.784;9.934;2023-04-29T11:55:52;21.97;;;18.60;;
15449;SDS011;7826;49.784;9.934;2023-04-29T11:58:19;22.20;;;18.50;;
15449;SDS011;7826;49.784;9.934;2023-04-29T12:00:46;23.53;;;18.37;;
15449;SDS011;7826;49.784;9.934;2023-04-29T12:03:17;24.47;;;19.63;;
15449;SDS011;7826;49.784;9.934;2023-04-29T12:05:45;22.57;;;18.03;;
15449;SDS011;7826;49.784;9.934;2023-04-29T12:08:21;23.67;;;18.87;;
15449;SDS011;7826;49.784;9.934;2023-04-29T12:10:51;23.63;;;18.43;;
15449;SDS011;7826;49.784;9.934;2023-04-29T12:13:19;23.20;;;18.83;;
15449;SDS011;7826;49.784;9.934;2023-04-29T12:15:49;23.73;;;17.70;;
15449;SDS011;7826;49.784;9.934;2023-04-29T12:18:17;25.10;;;17.37;;
15449;SDS011;7826;49.784;9.934;2023-04-29T12:20:44;21.50;;;19.10;;
15449;SDS011;7826;49.784;9.934;2023-04-29T12:23:13;22.17;;;17.93;;
15449;SDS011;7826;49.784;9.934;2023-04-29T12:25:40;19.77;;;14.93;;
15449;SDS011;7826;49.784;9.934;2023-04-29T12:28:13;19.03;;;15.30;;
15449;SDS011;7826;49.784;9.934;2023-04-29T12:30:43;18.07;;;14.27;;
15449;SDS011;7826;49.784;9.934;2023-04-29T12:33:10;26.07;;;18.30;;
15449;SDS011;7826;49.784;9.934;2023-04-29T12:35:44;16.00;;;13.30;;
15449;SDS011;7826;49.784;9.934;2023-04-29T12:38:10;16.87;;;12.27;;
15449;SDS011;7826;49.784;9.934;2023-04-29T12:40:40;13.27;;;11.50;;
15449;SDS011;7826;49.784;9.934;2023-04-29T12:43:07;12.20;;;10.90;;
15449;SDS011;7826;49.784;9.934;2023-04-29T12:45:34;13.97;;;12.03;;
15449;SDS011;7826;49.784;9.934;2023-04-29T12:48:01;13.03;;;11.30;;
15449;SDS011;7826;49.784;9.934;2023-04-29T12:50:29;12.20;;;9.67;;
15449;SDS011;7826;49.784;9.934;2023-04-29T12:53:01;11.03;;;9.93;;
15449;SDS011;7826;49.784;9.934;2023-04-29T12:55:35;13.17;;;11.73;;
15449;SDS011;7826;49.784;9.934;2023-04-29T12:58:03;14.07;;;12.20;;
15449;SDS011;7826;49.784;9.934;2023-04-29T13:00:30;13.53;;;10.17;;
15449;SDS011;7826;49.784;9.934;2023-04-29T13:02:57;9.97;;;8.97;;
15449;SDS011;7826;49.784;9.934;2023-04-29T13:05:23;12.67;;;8.80;;
15449;SDS011;7826;49.784;9.934;2023-04-29T13:07:50;13.20;;;10.40;;
15449;SDS011;7826;49.784;9.934;2023-04-29T13:10:17;12.67;;;11.57;;
15449;SDS011;7826;49.784;9.934;2023-04-29T13:12:43;14.23;;;10.20;;
15449;SDS011;7826;49.784;9.934;2023-04-29T13:15:10;10.67;;;9.67;;
15449;SDS011;7826;49.784;9.934;2023-04-29T13:17:36;12.60;;;10.57;;
15449;SDS011;7826;49.784;9.934;2023-04-29T13:20:04;14.00;;;10.23;;
15449;SDS011;7826;49.784;9.934;2023-04-29T13:22:31;11.37;;;10.10;;
15449;SDS011;7826;49.784;9.934;2023-04-29T13:24:57;11.53;;;10.23;;
15449;SDS011;7826;49.784;9.934;2023-04-29T13:27:24;10.50;;;9.50;;
15449;SDS011;7826;49.784;9.934;2023-04-29T13:29:50;12.33;;;9.97;;
15449;SDS011;7826;49.784;9.934;2023-04-29T13:32:17;11.57;;;10.17;;
15449;SDS011;7826;49.784;9.934;2023-04-29T13:34:45;14.63;;;10.53;;
15449;SDS011;7826;49.784;9.934;2023-04-29T13:37:12;14.10;;;10.10;;
15449;SDS011;7826;49.784;9.934;2023-04-29T13:39:38;11.07;;;9.97;;
15449;SDS011;7826;49.784;9.934;2023-04-29T13:42:04;15.07;;;10.80;;
15449;SDS011;7826;49.784;9.934;2023-04-29T13:44:31;12.40;;;10.37;;
15449;SDS011;7826;49.784;9.934;2023-04-29T13:46:57;11.23;;;10.03;;
15449;SDS011;7826;49.784;9.934;2023-04-29T13:49:23;12.37;;;10.73;;
15449;SDS011;7826;49.784;9.934;2023-04-29T13:51:52;12.00;;;10.70;;
15449;SDS011;7826;49.784;9.934;2023-04-29T13:54:19;12.53;;;10.27;;
15449;SDS011;7826;49.784;9.934;2023-04-29T13:56:46;13.30;;;11.23;;
15449;SDS011;7826;49.784;9.934;2023-04-29T13:59:14;13.63;;;11.07;;
15449;SDS011;7826;49.784;9.934;2023-04-29T14:01:42;12.67;;;11.37;;
15449;SDS011;7826;49.784;9.934;2023-04-29T14:04:10;12.97;;;10.47;;
15449;SDS011;7826;49.784;9.934;2023-04-29T14:06:38;13.10;;;10.13;;
15449;SDS011;7826;49.784;9.934;2023-04-29T14:09:09;11.43;;;9.57;;
15449;SDS011;7826;49.784;9.934;2023-04-29T14:11:35;11.83;;;9.50;;
15449;SDS011;7826;49.784;9.934;2023-04-29T14:14:02;10.57;;;9.00;;
15449;SDS011;7826;49.784;9.934;2023-04-29T14:16:29;11.00;;;8.13;;
15449;SDS011;7826;49.784;9.934;2023-04-29T14:18:57;11.20;;;7.60;;
15449;SDS011;7826;49.784;9.934;2023-04-29T14:21:24;15.07;;;13.30;;
15449;SDS011;7826;49.784;9.934;2023-04-29T14:23:51;11.33;;;8.77;;
15449;SDS011;7826;49.784;9.934;2023-04-29T14:26:17;9.87;;;8.87;;
15449;SDS011;7826;49.784;9.934;2023-04-29T14:28:43;8.80;;;7.90;;
15449;SDS011;7826;49.784;9.934;2023-04-29T14:31:10;8.77;;;7.23;;
15449;SDS011;7826;49.784;9.934;2023-04-29T14:33:38;9.43;;;8.20;;
15449;SDS011;7826;49.784;9.934;2023-04-29T14:36:05;9.63;;;7.37;;
15449;SDS011;7826;49.784;9.934;2023-04-29T14:38:32;8.60;;;7.53;;
15449;SDS011;7826;49.784;9.934;2023-04-29T14:40:58;9.03;;;8.10;;
15449;SDS011;7826;49.784;9.934;2023-04-29T14:43:25;11.03;;;8.03;;
15449;SDS011;7826;49.784;9.934;2023-04-29T14:45:51;11.17;;;8.87;;
15449;SDS011;7826;49.784;9.934;2023-04-29T14:48:17;9.00;;;8.10;;
15449;SDS011;7826;49.784;9.934;2023-04-29T14:50:43;9.80;;;8.80;;
15449;SDS011;7826;49.784;9.934;2023-04-29T14:53:10;10.30;;;8.53;;
15449;SDS011;7826;49.784;9.934;2023-04-29T14:55:37;11.50;;;10.30;;
15449;SDS011;7826;49.784;9.934;2023-04-29T14:58:03;10.03;;;8.33;;
15449;SDS011;7826;49.784;9.934;2023-04-29T15:00:29;13.13;;;11.70;;
15449;SDS011;7826;49.784;9.934;2023-04-29T15:02:56;11.63;;;9.40;;
15449;SDS011;7826;49.784;9.934;2023-04-29T15:05:22;10.90;;;8.90;;
15449;SDS011;7826;49.784;9.934;2023-04-29T15:10:23;17.63;;;9.57;;
15449;SDS011;7826;49.784;9.934;2023-04-29T15:12:49;12.17;;;8.47;;
15449;SDS011;7826;49.784;9.934;2023-04-29T15:15:17;10.10;;;8.37;;
15449;SDS011;7826;49.784;9.934;2023-04-29T15:17:43;12.73;;;9.60;;
15449;SDS011;7826;49.784;9.934;2023-04-29T15:20:10;10.53;;;8.53;;
15449;SDS011;7826;49.784;9.934;2023-04-29T15:22:36;9.90;;;8.87;;
15449;SDS011;7826;49.784;9.934;2023-04-29T15:25:03;10.13;;;8.60;;
15449;SDS011;7826;49.784;9.934;2023-04-29T15:27:29;8.13;;;7.30;;